sensor_id;sensor_type;location;lat;lon;timestamp;temperature;humidity
15450;DHT22;7826;49.784;9.934;2024-01-06T00:02:02;1.20;5.40
15450;DHT22;7826;49.784;9.934;2024-01-06T00:04:28;1.30;7.00
15450;DHT22;7826;49.784;9.934;2024-01-06T00:06:54;1.20;8.50
15450;DHT22;7826;49.784;9.934;2024-01-06T00:09:20;1.30;7.70
15450;DHT22;7826;49.784;9.934;2024-01-06T00:11:46;1.30;6.20
15450;DHT22;7826;49.784;9.934;2024-01-06T00:14:13;1.20;3.50
15450;DHT22;7826;49.784;9.934;2024-01-06T00:16:39;1.20;4.10
15450;DHT22;7826;49.784;9.934;2024-01-06T00:19:05;1.20;6.50
15450;DHT22;7826;49.784;9.934;2024-01-06T00:21:31;1.30;7.60
15450;DHT22;7826;49.784;9.934;2024-01-06T00:23:57;1.30;8.10
15450;DHT22;7826;49.784;9.934;2024-01-06T00:26:23;1.30;6.10
15450;DHT22;7826;49.784;9.934;2024-01-06T00:28:50;1.30;7.80
15450;DHT22;7826;49.784;9.934;2024-01-06T00:31:16;1.40;7.20
15450;DHT22;7826;49.784;9.934;2024-01-06T00:33:43;1.40;4.00
15450;DHT22;7826;49.784;9.934;2024-01-06T00:36:09;1.40;1.00
15450;DHT22;7826;49.784;9.934;2024-01-06T00:38:35;1.40;1.00
15450;DHT22;7826;49.784;9.934;2024-01-06T00:41:02;1.50;1.00
15450;DHT22;7826;49.784;9.934;2024-01-06T00:43:28;1.30;1.00
15450;DHT22;7826;49.784;9.934;2024-01-06T00:45:54;1.30;1.00
15450;DHT22;7826;49.784;9.934;2024-01-06T00:48:20;1.30;1.00
15450;DHT22;7826;49.784;9.934;2024-01-06T00:50:46;1.30;1.00
15450;DHT22;7826;49.784;9.934;2024-01-06T00:53:12;1.30;1.00
15450;DHT22;7826;49.784;9.934;2024-01-06T00:55:39;1.40;1.00
15450;DHT22;7826;49.784;9.934;2024-01-06T00:58:05;1.40;1.00
15450;DHT22;7826;49.784;9.934;2024-01-06T01:00:31;1.40;1.00
15450;DHT22;7826;49.784;9.934;2024-01-06T01:02:57;1.30;1.00
15450;DHT22;7826;49.784;9.934;2024-01-06T01:05:23;1.30;1.00
15450;DHT22;7826;49.784;9.934;2024-01-06T01:07:49;1.30;1.00
15450;DHT22;7826;49.784;9.934;2024-01-06T01:10:15;1.20;1.00
15450;DHT22;7826;49.784;9.934;2024-01-06T01:12:41;1.30;1.00
15450;DHT22;7826;49.784;9.934;2024-01-06T01:15:08;1.30;1.00
15450;DHT22;7826;49.784;9.934;2024-01-06T01:17:34;1.20;1.00
15450;DHT22;7826;49.784;9.934;2024-01-06T01:20:00;1.20;1.00
15450;DHT22;7826;49.784;9.934;2024-01-06T01:22:26;1.20;1.00
15450;DHT22;7826;49.784;9.934;2024-01-06T01:24:52;1.30;1.00
15450;DHT22;7826;49.784;9.934;2024-01-06T01:27:18;1.20;1.00
15450;DHT22;7826;49.784;9.934;2024-01-06T01:29:44;1.20;1.00
15450;DHT22;7826;49.784;9.934;2024-01-06T01:32:11;1.30;1.00
15450;DHT22;7826;49.784;9.934;2024-01-06T01:34:37;1.20;1.00
15450;DHT22;7826;49.784;9.934;2024-01-06T01:37:03;1.20;1.00
15450;DHT22;7826;49.784;9.934;2024-01-06T01:39:29;1.20;1.00
15450;DHT22;7826;49.784;9.934;2024-01-06T01:41:55;1.30;1.00
15450;DHT22;7826;49.784;9.934;2024-01-06T01:44:21;1.20;1.00
15450;DHT22;7826;49.784;9.934;2024-01-06T01:46:48;1.30;1.00
15450;DHT22;7826;49.784;9.934;2024-01-06T01:49:14;1.30;1.00
15450;DHT22;7826;49.784;9.934;2024-01-06T01:51:41;1.30;1.00
15450;DHT22;7826;49.784;9.934;2024-01-06T01:54:10;1.20;1.00
15450;DHT22;7826;49.784;9.934;2024-01-06T01:56:36;1.30;1.00
15450;DHT22;7826;49.784;9.934;2024-01-06T01:59:09;1.30;1.00
15450;DHT22;7826;49.784;9.934;2024-01-06T02:01:36;1.40;1.00
15450;DHT22;7826;49.784;9.934;2024-01-06T02:04:03;1.30;1.00
15450;DHT22;7826;49.784;9.934;2024-01-06T02:06:29;1.30;1.00
15450;DHT22;7826;49.784;9.934;2024-01-06T02:08:55;1.30;1.00
15450;DHT22;7826;49.784;9.934;2024-01-06T02:11:22;1.30;1.00
15450;DHT22;7826;49.784;9.934;2024-01-06T02:13:48;1.40;1.00
15450;DHT22;7826;49.784;9.934;2024-01-06T02:16:14;1.40;1.00
15450;DHT22;7826;49.784;9.934;2024-01-06T02:18:40;1.40;1.00
15450;DHT22;7826;49.784;9.934;2024-01-06T02:21:07;1.40;1.00
15450;DHT22;7826;49.784;9.934;2024-01-06T02:23:35;1.40;1.00
15450;DHT22;7826;49.784;9.934;2024-01-06T02:26:02;1.40;1.00
15450;DHT22;7826;49.784;9.934;2024-01-06T02:28:28;1.40;1.00
15450;DHT22;7826;49.784;9.934;2024-01-06T02:30:54;1.40;1.00
15450;DHT22;7826;49.784;9.934;2024-01-06T02:33:21;1.20;1.00
15450;DHT22;7826;49.784;9.934;2024-01-06T02:35:50;1.30;1.00
15450;DHT22;7826;49.784;9.934;2024-01-06T02:38:16;1.30;1.00
15450;DHT22;7826;49.784;9.934;2024-01-06T02:40:42;1.30;1.00
15450;DHT22;7826;49.784;9.934;2024-01-06T02:43:09;1.30;1.00
15450;DHT22;7826;49.784;9.934;2024-01-06T02:45:36;1.30;1.00
15450;DHT22;7826;49.784;9.934;2024-01-06T02:48:02;1.30;1.00
15450;DHT22;7826;49.784;9.934;2024-01-06T02:50:28;1.30;1.00
15450;DHT22;7826;49.784;9.934;2024-01-06T02:52:54;1.30;1.00
15450;DHT22;7826;49.784;9.934;2024-01-06T02:55:20;1.30;1.00
15450;DHT22;7826;49.784;9.934;2024-01-06T02:57:46;1.20;1.00
15450;DHT22;7826;49.784;9.934;2024-01-06T03:00:13;1.30;1.00
15450;DHT22;7826;49.784;9.934;2024-01-06T03:02:39;1.20;1.00
15450;DHT22;7826;49.784;9.934;2024-01-06T03:05:08;1.20;1.00
15450;DHT22;7826;49.784;9.934;2024-01-06T03:07:34;1.20;1.00
15450;DHT22;7826;49.784;9.934;2024-01-06T03:10:01;1.20;1.00
15450;DHT22;7826;49.784;9.934;2024-01-06T03:12:27;1.20;1.00
15450;DHT22;7826;49.784;9.934;2024-01-06T03:14:53;1.10;1.00
15450;DHT22;7826;49.784;9.934;2024-01-06T03:17:19;1.20;1.00
15450;DHT22;7826;49.784;9.934;2024-01-06T03:19:45;1.20;1.00
15450;DHT22;7826;49.784;9.934;2024-01-06T03:22:11;1.20;1.00
15450;DHT22;7826;49.784;9.934;2024-01-06T03:24:37;1.10;1.00
15450;DHT22;7826;49.784;9.934;2024-01-06T03:27:04;1.20;1.00
15450;DHT22;7826;49.784;9.934;2024-01-06T03:29:30;1.20;1.00
15450;DHT22;7826;49.784;9.934;2024-01-06T03:31:56;1.10;1.00
15450;DHT22;7826;49.784;9.934;2024-01-06T03:34:23;1.10;1.00
15450;DHT22;7826;49.784;9.934;2024-01-06T03:36:49;1.10;1.00
15450;DHT22;7826;49.784;9.934;2024-01-06T03:39:15;1.20;1.00
15450;DHT22;7826;49.784;9.934;2024-01-06T03:41:41;1.20;1.00
15450;DHT22;7826;49.784;9.934;2024-01-06T03:44:07;1.10;1.00
15450;DHT22;7826;49.784;9.934;2024-01-06T03:46:35;1.10;1.00
15450;DHT22;7826;49.784;9.934;2024-01-06T03:49:01;1.10;1.00
15450;DHT22;7826;49.784;9.934;2024-01-06T03:51:27;1.10;1.00
15450;DHT22;7826;49.784;9.934;2024-01-06T03:53:53;1.00;1.00
15450;DHT22;7826;49.784;9.934;2024-01-06T03:56:19;1.10;1.00
15450;DHT22;7826;49.784;9.934;2024-01-06T03:58:46;1.10;1.00
15450;DHT22;7826;49.784;9.934;2024-01-06T04:01:12;1.00;1.00
15450;DHT22;7826;49.784;9.934;2024-01-06T04:03:39;1.00;1.00
15450;DHT22;7826;49.784;9.934;2024-01-06T04:06:08;0.90;1.00
15450;DHT22;7826;49.784;9.934;2024-01-06T04:08:36;0.90;1.00
15450;DHT22;7826;49.784;9.934;2024-01-06T04:11:02;0.90;1.00
15450;DHT22;7826;49.784;9.934;2024-01-06T04:13:28;0.90;1.00
15450;DHT22;7826;49.784;9.934;2024-01-06T04:15:54;0.90;1.00
15450;DHT22;7826;49.784;9.934;2024-01-06T04:18:20;0.90;3.80
15450;DHT22;7826;49.784;9.934;2024-01-06T04:20:47;0.90;4.20
15450;DHT22;7826;49.784;9.934;2024-01-06T04:23:13;0.90;4.90
15450;DHT22;7826;49.784;9.934;2024-01-06T04:25:39;1.00;4.90
15450;DHT22;7826;49.784;9.934;2024-01-06T04:28:05;1.00;1.60
15450;DHT22;7826;49.784;9.934;2024-01-06T04:30:31;0.90;1.00
15450;DHT22;7826;49.784;9.934;2024-01-06T04:32:57;0.90;1.00
15450;DHT22;7826;49.784;9.934;2024-01-06T04:35:23;0.90;1.00
15450;DHT22;7826;49.784;9.934;2024-01-06T04:37:50;0.90;1.00
15450;DHT22;7826;49.784;9.934;2024-01-06T04:40:16;0.90;1.00
15450;DHT22;7826;49.784;9.934;2024-01-06T04:42:42;0.90;1.00
15450;DHT22;7826;49.784;9.934;2024-01-06T04:45:09;0.90;1.00
15450;DHT22;7826;49.784;9.934;2024-01-06T04:47:36;0.80;1.00
15450;DHT22;7826;49.784;9.934;2024-01-06T04:50:02;0.90;1.00
15450;DHT22;7826;49.784;9.934;2024-01-06T04:52:28;0.90;1.00
15450;DHT22;7826;49.784;9.934;2024-01-06T04:54:55;0.80;1.00
15450;DHT22;7826;49.784;9.934;2024-01-06T04:57:21;0.90;1.00
15450;DHT22;7826;49.784;9.934;2024-01-06T04:59:48;0.90;1.00
15450;DHT22;7826;49.784;9.934;2024-01-06T05:02:14;0.80;1.00
15450;DHT22;7826;49.784;9.934;2024-01-06T05:04:41;0.80;1.00
15450;DHT22;7826;49.784;9.934;2024-01-06T05:07:07;0.80;1.00
15450;DHT22;7826;49.784;9.934;2024-01-06T05:09:33;0.80;1.00
15450;DHT22;7826;49.784;9.934;2024-01-06T05:11:59;0.80;1.00
15450;DHT22;7826;49.784;9.934;2024-01-06T05:14:25;0.70;1.00
15450;DHT22;7826;49.784;9.934;2024-01-06T05:16:51;0.70;1.00
15450;DHT22;7826;49.784;9.934;2024-01-06T05:19:17;0.80;1.00
15450;DHT22;7826;49.784;9.934;2024-01-06T05:21:47;0.70;1.00
15450;DHT22;7826;49.784;9.934;2024-01-06T05:24:13;0.80;1.00
15450;DHT22;7826;49.784;9.934;2024-01-06T05:26:39;0.70;1.00
15450;DHT22;7826;49.784;9.934;2024-01-06T05:29:06;0.70;1.00
15450;DHT22;7826;49.784;9.934;2024-01-06T05:31:32;0.70;1.00
15450;DHT22;7826;49.784;9.934;2024-01-06T05:33:58;0.70;1.00
15450;DHT22;7826;49.784;9.934;2024-01-06T05:36:24;0.70;2.50
15450;DHT22;7826;49.784;9.934;2024-01-06T05:38:51;0.70;2.60
15450;DHT22;7826;49.784;9.934;2024-01-06T05:41:17;0.70;1.00
15450;DHT22;7826;49.784;9.934;2024-01-06T05:43:43;0.80;1.00
15450;DHT22;7826;49.784;9.934;2024-01-06T05:46:09;0.80;1.00
15450;DHT22;7826;49.784;9.934;2024-01-06T05:48:37;0.90;1.00
15450;DHT22;7826;49.784;9.934;2024-01-06T05:51:06;0.90;1.00
15450;DHT22;7826;49.784;9.934;2024-01-06T05:53:32;0.80;1.00
15450;DHT22;7826;49.784;9.934;2024-01-06T05:55:58;0.80;1.00
15450;DHT22;7826;49.784;9.934;2024-01-06T05:58:24;0.80;1.00
15450;DHT22;7826;49.784;9.934;2024-01-06T06:00:50;0.80;1.00
15450;DHT22;7826;49.784;9.934;2024-01-06T06:03:17;0.90;1.00
15450;DHT22;7826;49.784;9.934;2024-01-06T06:05:43;1.00;1.00
15450;DHT22;7826;49.784;9.934;2024-01-06T06:08:09;1.00;1.00
15450;DHT22;7826;49.784;9.934;2024-01-06T06:10:35;1.00;1.00
15450;DHT22;7826;49.784;9.934;2024-01-06T06:13:17;0.90;1.00
15450;DHT22;7826;49.784;9.934;2024-01-06T06:15:43;0.90;1.00
15450;DHT22;7826;49.784;9.934;2024-01-06T06:18:09;1.00;1.00
15450;DHT22;7826;49.784;9.934;2024-01-06T06:20:35;1.00;1.00
15450;DHT22;7826;49.784;9.934;2024-01-06T06:23:02;1.00;1.00
15450;DHT22;7826;49.784;9.934;2024-01-06T06:25:28;1.00;1.00
15450;DHT22;7826;49.784;9.934;2024-01-06T06:27:54;1.10;1.00
15450;DHT22;7826;49.784;9.934;2024-01-06T06:30:20;1.10;1.00
15450;DHT22;7826;49.784;9.934;2024-01-06T06:32:46;1.00;1.00
15450;DHT22;7826;49.784;9.934;2024-01-06T06:35:13;1.00;1.00
15450;DHT22;7826;49.784;9.934;2024-01-06T06:37:39;0.80;1.00
15450;DHT22;7826;49.784;9.934;2024-01-06T06:40:06;0.90;1.00
15450;DHT22;7826;49.784;9.934;2024-01-06T06:42:32;0.90;1.00
15450;DHT22;7826;49.784;9.934;2024-01-06T06:44:58;0.80;1.00
15450;DHT22;7826;49.784;9.934;2024-01-06T06:47:24;0.90;1.00
15450;DHT22;7826;49.784;9.934;2024-01-06T06:49:50;0.90;1.00
15450;DHT22;7826;49.784;9.934;2024-01-06T06:52:17;1.00;1.00
15450;DHT22;7826;49.784;9.934;2024-01-06T06:54:43;1.00;1.00
15450;DHT22;7826;49.784;9.934;2024-01-06T06:57:09;0.90;1.00
15450;DHT22;7826;49.784;9.934;2024-01-06T06:59:35;0.90;1.00
15450;DHT22;7826;49.784;9.934;2024-01-06T07:02:01;0.90;1.00
15450;DHT22;7826;49.784;9.934;2024-01-06T07:04:27;0.90;1.00
15450;DHT22;7826;49.784;9.934;2024-01-06T07:06:53;1.00;1.00
15450;DHT22;7826;49.784;9.934;2024-01-06T07:09:19;1.10;1.00
15450;DHT22;7826;49.784;9.934;2024-01-06T07:11:49;1.00;1.00
15450;DHT22;7826;49.784;9.934;2024-01-06T07:14:16;1.00;1.00
15450;DHT22;7826;49.784;9.934;2024-01-06T07:16:42;1.00;1.00
15450;DHT22;7826;49.784;9.934;2024-01-06T07:19:08;0.90;1.00
15450;DHT22;7826;49.784;9.934;2024-01-06T07:21:34;0.90;1.00
15450;DHT22;7826;49.784;9.934;2024-01-06T07:24:00;1.00;1.00
15450;DHT22;7826;49.784;9.934;2024-01-06T07:26:29;1.00;1.00
15450;DHT22;7826;49.784;9.934;2024-01-06T07:28:55;0.90;1.00
15450;DHT22;7826;49.784;9.934;2024-01-06T07:31:21;1.00;1.00
15450;DHT22;7826;49.784;9.934;2024-01-06T07:33:47;1.00;1.00
15450;DHT22;7826;49.784;9.934;2024-01-06T07:36:13;1.10;1.00
15450;DHT22;7826;49.784;9.934;2024-01-06T07:38:39;1.10;1.00
15450;DHT22;7826;49.784;9.934;2024-01-06T07:41:06;0.90;1.00
15450;DHT22;7826;49.784;9.934;2024-01-06T07:43:33;1.00;1.00
15450;DHT22;7826;49.784;9.934;2024-01-06T07:45:59;1.00;1.00
15450;DHT22;7826;49.784;9.934;2024-01-06T07:48:25;1.10;1.00
15450;DHT22;7826;49.784;9.934;2024-01-06T07:50:51;1.10;1.00
15450;DHT22;7826;49.784;9.934;2024-01-06T07:53:17;1.10;1.00
15450;DHT22;7826;49.784;9.934;2024-01-06T07:55:44;1.00;1.00
15450;DHT22;7826;49.784;9.934;2024-01-06T07:58:10;1.00;1.00
15450;DHT22;7826;49.784;9.934;2024-01-06T08:00:37;1.10;1.00
15450;DHT22;7826;49.784;9.934;2024-01-06T08:03:03;1.00;1.00
15450;DHT22;7826;49.784;9.934;2024-01-06T08:05:32;0.90;1.00
15450;DHT22;7826;49.784;9.934;2024-01-06T08:07:58;0.90;1.00
15450;DHT22;7826;49.784;9.934;2024-01-06T08:10:24;0.90;1.00
15450;DHT22;7826;49.784;9.934;2024-01-06T08:12:50;0.90;1.00
15450;DHT22;7826;49.784;9.934;2024-01-06T08:15:16;1.00;1.00
15450;DHT22;7826;49.784;9.934;2024-01-06T08:17:43;1.00;1.00
15450;DHT22;7826;49.784;9.934;2024-01-06T08:20:09;1.00;1.00
15450;DHT22;7826;49.784;9.934;2024-01-06T08:22:35;0.90;1.00
15450;DHT22;7826;49.784;9.934;2024-01-06T08:25:01;0.90;1.00
15450;DHT22;7826;49.784;9.934;2024-01-06T08:27:28;0.90;1.00
15450;DHT22;7826;49.784;9.934;2024-01-06T08:29:54;0.80;1.00
15450;DHT22;7826;49.784;9.934;2024-01-06T08:32:20;0.90;1.00
15450;DHT22;7826;49.784;9.934;2024-01-06T08:34:46;1.00;1.00
15450;DHT22;7826;49.784;9.934;2024-01-06T08:37:13;0.90;1.00
15450;DHT22;7826;49.784;9.934;2024-01-06T08:39:40;0.70;1.00
15450;DHT22;7826;49.784;9.934;2024-01-06T08:42:07;0.80;1.00
15450;DHT22;7826;49.784;9.934;2024-01-06T08:44:33;0.90;1.00
15450;DHT22;7826;49.784;9.934;2024-01-06T08:46:59;0.80;1.00
15450;DHT22;7826;49.784;9.934;2024-01-06T08:49:25;0.80;1.00
15450;DHT22;7826;49.784;9.934;2024-01-06T08:51:51;0.80;1.00
15450;DHT22;7826;49.784;9.934;2024-01-06T08:54:17;0.80;1.00
15450;DHT22;7826;49.784;9.934;2024-01-06T08:56:43;0.70;1.00
15450;DHT22;7826;49.784;9.934;2024-01-06T08:59:09;0.80;1.00
15450;DHT22;7826;49.784;9.934;2024-01-06T09:01:35;0.80;1.00
15450;DHT22;7826;49.784;9.934;2024-01-06T09:04:03;0.70;1.00
15450;DHT22;7826;49.784;9.934;2024-01-06T09:06:29;0.70;1.00
15450;DHT22;7826;49.784;9.934;2024-01-06T09:08:55;0.80;1.00
15450;DHT22;7826;49.784;9.934;2024-01-06T09:11:21;0.80;1.00
15450;DHT22;7826;49.784;9.934;2024-01-06T09:13:47;0.70;1.00
15450;DHT22;7826;49.784;9.934;2024-01-06T09:16:14;0.80;1.00
15450;DHT22;7826;49.784;9.934;2024-01-06T09:18:40;0.80;1.00
15450;DHT22;7826;49.784;9.934;2024-01-06T09:21:06;0.90;1.00
15450;DHT22;7826;49.784;9.934;2024-01-06T09:23:33;0.90;1.00
15450;DHT22;7826;49.784;9.934;2024-01-06T09:25:59;0.80;1.00
15450;DHT22;7826;49.784;9.934;2024-01-06T09:28:25;0.90;1.00
15450;DHT22;7826;49.784;9.934;2024-01-06T09:30:51;0.80;1.00
15450;DHT22;7826;49.784;9.934;2024-01-06T09:33:18;0.70;1.00
15450;DHT22;7826;49.784;9.934;2024-01-06T09:35:44;0.80;1.00
15450;DHT22;7826;49.784;9.934;2024-01-06T09:38:10;0.60;1.00
15450;DHT22;7826;49.784;9.934;2024-01-06T09:40:42;0.70;1.00
15450;DHT22;7826;49.784;9.934;2024-01-06T09:43:11;0.70;1.00
15450;DHT22;7826;49.784;9.934;2024-01-06T09:45:38;0.80;1.00
15450;DHT22;7826;49.784;9.934;2024-01-06T09:48:11;0.80;1.00
15450;DHT22;7826;49.784;9.934;2024-01-06T09:50:42;0.70;1.00
15450;DHT22;7826;49.784;9.934;2024-01-06T09:53:10;0.80;1.00
15450;DHT22;7826;49.784;9.934;2024-01-06T09:55:37;0.90;1.00
15450;DHT22;7826;49.784;9.934;2024-01-06T09:58:04;1.00;1.00
15450;DHT22;7826;49.784;9.934;2024-01-06T10:00:32;1.00;1.00
15450;DHT22;7826;49.784;9.934;2024-01-06T10:02:58;1.00;1.00
15450;DHT22;7826;49.784;9.934;2024-01-06T10:05:24;1.00;1.00
15450;DHT22;7826;49.784;9.934;2024-01-06T10:07:50;0.90;1.00
15450;DHT22;7826;49.784;9.934;2024-01-06T10:10:16;0.80;1.00
15450;DHT22;7826;49.784;9.934;2024-01-06T10:12:43;0.90;1.00
15450;DHT22;7826;49.784;9.934;2024-01-06T10:15:10;0.80;1.00
15450;DHT22;7826;49.784;9.934;2024-01-06T10:17:38;0.80;1.00
15450;DHT22;7826;49.784;9.934;2024-01-06T10:20:12;0.60;1.00
15450;DHT22;7826;49.784;9.934;2024-01-06T10:22:40;0.50;1.00
15450;DHT22;7826;49.784;9.934;2024-01-06T10:25:08;0.40;1.00
15450;DHT22;7826;49.784;9.934;2024-01-06T10:27:38;0.40;1.00
15450;DHT22;7826;49.784;9.934;2024-01-06T10:30:08;0.50;1.00
15450;DHT22;7826;49.784;9.934;2024-01-06T10:32:35;0.50;1.00
15450;DHT22;7826;49.784;9.934;2024-01-06T10:35:03;0.50;1.00
15450;DHT22;7826;49.784;9.934;2024-01-06T10:37:30;0.60;1.00
15450;DHT22;7826;49.784;9.934;2024-01-06T10:40:13;0.60;1.00
15450;DHT22;7826;49.784;9.934;2024-01-06T10:42:42;0.50;1.00
15450;DHT22;7826;49.784;9.934;2024-01-06T10:45:10;0.60;1.00
15450;DHT22;7826;49.784;9.934;2024-01-06T10:47:37;0.60;1.00
15450;DHT22;7826;49.784;9.934;2024-01-06T10:50:04;0.50;1.00
15450;DHT22;7826;49.784;9.934;2024-01-06T10:52:31;0.50;1.00
15450;DHT22;7826;49.784;9.934;2024-01-06T10:54:58;0.50;1.00
15450;DHT22;7826;49.784;9.934;2024-01-06T10:57:24;0.50;1.00
15450;DHT22;7826;49.784;9.934;2024-01-06T10:59:52;0.40;1.00
15450;DHT22;7826;49.784;9.934;2024-01-06T11:02:19;0.40;1.00
15450;DHT22;7826;49.784;9.934;2024-01-06T11:04:48;0.40;1.00
15450;DHT22;7826;49.784;9.934;2024-01-06T11:07:19;0.60;1.00
15450;DHT22;7826;49.784;9.934;2024-01-06T11:10:03;0.40;1.00
15450;DHT22;7826;49.784;9.934;2024-01-06T11:12:31;0.30;1.00
15450;DHT22;7826;49.784;9.934;2024-01-06T11:14:57;0.40;1.00
15450;DHT22;7826;49.784;9.934;2024-01-06T11:17:52;0.20;1.00
15450;DHT22;7826;49.784;9.934;2024-01-06T11:20:27;0.20;1.00
15450;DHT22;7826;49.784;9.934;2024-01-06T11:22:53;0.10;1.00
15450;DHT22;7826;49.784;9.934;2024-01-06T11:25:21;0.30;1.00
15450;DHT22;7826;49.784;9.934;2024-01-06T11:27:49;0.30;1.00
15450;DHT22;7826;49.784;9.934;2024-01-06T11:30:26;0.20;1.00
15450;DHT22;7826;49.784;9.934;2024-01-06T11:32:53;0.20;1.00
15450;DHT22;7826;49.784;9.934;2024-01-06T11:35:20;0.20;1.00
15450;DHT22;7826;49.784;9.934;2024-01-06T11:42:59;0.10;1.00
15450;DHT22;7826;49.784;9.934;2024-01-06T11:45:26;0.30;1.00
15450;DHT22;7826;49.784;9.934;2024-01-06T11:47:58;0.20;1.00
15450;DHT22;7826;49.784;9.934;2024-01-06T11:50:32;0.30;1.00
15450;DHT22;7826;49.784;9.934;2024-01-06T11:52:59;0.20;1.00
15450;DHT22;7826;49.784;9.934;2024-01-06T11:55:26;0.00;1.00
15450;DHT22;7826;49.784;9.934;2024-01-06T11:57:58;0.10;1.00
15450;DHT22;7826;49.784;9.934;2024-01-06T12:00:28;0.20;1.00
15450;DHT22;7826;49.784;9.934;2024-01-06T12:03:01;0.20;1.00
15450;DHT22;7826;49.784;9.934;2024-01-06T12:05:27;0.20;1.00
15450;DHT22;7826;49.784;9.934;2024-01-06T12:08:01;0.20;1.00
15450;DHT22;7826;49.784;9.934;2024-01-06T12:10:28;0.20;1.00
15450;DHT22;7826;49.784;9.934;2024-01-06T12:13:05;0.30;1.00
15450;DHT22;7826;49.784;9.934;2024-01-06T12:15:34;0.30;1.00
15450;DHT22;7826;49.784;9.934;2024-01-06T12:18:04;0.30;1.00
15450;DHT22;7826;49.784;9.934;2024-01-06T12:20:31;0.40;1.00
15450;DHT22;7826;49.784;9.934;2024-01-06T12:22:57;0.40;1.00
15450;DHT22;7826;49.784;9.934;2024-01-06T12:25:24;0.30;1.00
15450;DHT22;7826;49.784;9.934;2024-01-06T12:27:52;0.40;1.00
15450;DHT22;7826;49.784;9.934;2024-01-06T12:30:21;0.40;1.00
15450;DHT22;7826;49.784;9.934;2024-01-06T12:32:48;0.50;1.00
15450;DHT22;7826;49.784;9.934;2024-01-06T12:35:15;0.50;1.00
15450;DHT22;7826;49.784;9.934;2024-01-06T12:37:42;0.50;1.00
15450;DHT22;7826;49.784;9.934;2024-01-06T12:40:09;0.40;1.00
15450;DHT22;7826;49.784;9.934;2024-01-06T12:42:36;0.30;1.00
15450;DHT22;7826;49.784;9.934;2024-01-06T12:45:02;0.30;1.00
15450;DHT22;7826;49.784;9.934;2024-01-06T12:47:29;0.30;1.00
15450;DHT22;7826;49.784;9.934;2024-01-06T12:49:55;0.40;1.00
15450;DHT22;7826;49.784;9.934;2024-01-06T12:52:21;0.40;1.00
15450;DHT22;7826;49.784;9.934;2024-01-06T12:54:47;0.20;1.00
15450;DHT22;7826;49.784;9.934;2024-01-06T12:57:13;0.20;1.00
15450;DHT22;7826;49.784;9.934;2024-01-06T12:59:39;0.20;1.00
15450;DHT22;7826;49.784;9.934;2024-01-06T13:02:06;0.30;1.00
15450;DHT22;7826;49.784;9.934;2024-01-06T13:04:32;0.30;1.00
15450;DHT22;7826;49.784;9.934;2024-01-06T13:06:58;0.30;1.00
15450;DHT22;7826;49.784;9.934;2024-01-06T13:09:24;0.30;1.00
15450;DHT22;7826;49.784;9.934;2024-01-06T13:11:52;0.30;1.00
15450;DHT22;7826;49.784;9.934;2024-01-06T13:14:18;0.30;1.00
15450;DHT22;7826;49.784;9.934;2024-01-06T13:16:45;0.40;1.00
15450;DHT22;7826;49.784;9.934;2024-01-06T13:19:11;0.30;1.00
15450;DHT22;7826;49.784;9.934;2024-01-06T13:21:37;0.00;1.00
15450;DHT22;7826;49.784;9.934;2024-01-06T13:24:06;0.10;1.00
15450;DHT22;7826;49.784;9.934;2024-01-06T13:26:33;0.10;1.00
15450;DHT22;7826;49.784;9.934;2024-01-06T13:28:59;0.20;1.00
15450;DHT22;7826;49.784;9.934;2024-01-06T13:31:25;0.20;1.00
15450;DHT22;7826;49.784;9.934;2024-01-06T13:33:52;0.20;1.00
15450;DHT22;7826;49.784;9.934;2024-01-06T13:36:20;0.10;1.00
15450;DHT22;7826;49.784;9.934;2024-01-06T13:38:46;0.00;1.00
15450;DHT22;7826;49.784;9.934;2024-01-06T13:41:14;-0.10;1.00
15450;DHT22;7826;49.784;9.934;2024-01-06T13:43:41;-0.20;1.00
15450;DHT22;7826;49.784;9.934;2024-01-06T13:46:07;-0.10;1.00
15450;DHT22;7826;49.784;9.934;2024-01-06T13:48:33;-0.10;1.00
15450;DHT22;7826;49.784;9.934;2024-01-06T13:50:59;0.00;1.00
15450;DHT22;7826;49.784;9.934;2024-01-06T13:53:26;0.10;1.00
15450;DHT22;7826;49.784;9.934;2024-01-06T13:55:52;0.10;1.00
15450;DHT22;7826;49.784;9.934;2024-01-06T13:58:18;0.10;1.00
15450;DHT22;7826;49.784;9.934;2024-01-06T14:00:45;0.20;1.00
15450;DHT22;7826;49.784;9.934;2024-01-06T14:03:11;0.10;1.00
15450;DHT22;7826;49.784;9.934;2024-01-06T14:05:37;0.20;1.00
15450;DHT22;7826;49.784;9.934;2024-01-06T14:08:04;0.10;1.00
15450;DHT22;7826;49.784;9.934;2024-01-06T14:10:30;0.00;1.00
15450;DHT22;7826;49.784;9.934;2024-01-06T14:12:57;0.10;1.00
15450;DHT22;7826;49.784;9.934;2024-01-06T14:15:24;0.00;1.00
15450;DHT22;7826;49.784;9.934;2024-01-06T14:17:53;0.00;1.00
15450;DHT22;7826;49.784;9.934;2024-01-06T14:20:19;0.00;1.00
15450;DHT22;7826;49.784;9.934;2024-01-06T14:22:46;0.00;1.00
15450;DHT22;7826;49.784;9.934;2024-01-06T14:25:13;0.10;1.00
15450;DHT22;7826;49.784;9.934;2024-01-06T14:27:39;0.00;1.00
15450;DHT22;7826;49.784;9.934;2024-01-06T14:30:05;0.10;1.00
15450;DHT22;7826;49.784;9.934;2024-01-06T14:32:36;-0.10;1.00
15450;DHT22;7826;49.784;9.934;2024-01-06T14:35:06;0.00;1.00
15450;DHT22;7826;49.784;9.934;2024-01-06T14:37:35;-0.10;1.00
15450;DHT22;7826;49.784;9.934;2024-01-06T14:40:01;-0.20;1.00
15450;DHT22;7826;49.784;9.934;2024-01-06T14:42:31;-0.20;1.00
15450;DHT22;7826;49.784;9.934;2024-01-06T14:44:59;-0.20;1.00
15450;DHT22;7826;49.784;9.934;2024-01-06T14:47:25;-0.20;1.00
15450;DHT22;7826;49.784;9.934;2024-01-06T14:49:51;-0.20;1.00
15450;DHT22;7826;49.784;9.934;2024-01-06T14:52:17;-0.10;1.00
15450;DHT22;7826;49.784;9.934;2024-01-06T14:54:44;-0.10;1.00
15450;DHT22;7826;49.784;9.934;2024-01-06T14:57:10;0.00;1.00
15450;DHT22;7826;49.784;9.934;2024-01-06T14:59:36;0.00;1.00
15450;DHT22;7826;49.784;9.934;2024-01-06T15:02:03;0.00;1.00
15450;DHT22;7826;49.784;9.934;2024-01-06T15:04:29;-0.10;1.00
15450;DHT22;7826;49.784;9.934;2024-01-06T15:06:56;0.00;1.00
15450;DHT22;7826;49.784;9.934;2024-01-06T15:09:22;0.00;1.00
15450;DHT22;7826;49.784;9.934;2024-01-06T15:11:50;-0.20;1.00
15450;DHT22;7826;49.784;9.934;2024-01-06T15:14:16;-0.10;1.00
15450;DHT22;7826;49.784;9.934;2024-01-06T15:16:42;-0.10;1.00
15450;DHT22;7826;49.784;9.934;2024-01-06T15:19:08;-0.20;1.00
15450;DHT22;7826;49.784;9.934;2024-01-06T15:21:35;-0.20;1.00
15450;DHT22;7826;49.784;9.934;2024-01-06T15:24:02;-0.20;1.00
15450;DHT22;7826;49.784;9.934;2024-01-06T15:26:29;-0.20;1.00
15450;DHT22;7826;49.784;9.934;2024-01-06T15:28:56;-0.20;1.00
15450;DHT22;7826;49.784;9.934;2024-01-06T15:31:24;-0.10;1.00
15450;DHT22;7826;49.784;9.934;2024-01-06T15:33:50;-0.20;1.00
15450;DHT22;7826;49.784;9.934;2024-01-06T15:36:16;-0.20;1.00
15450;DHT22;7826;49.784;9.934;2024-01-06T15:38:42;-0.20;1.00
15450;DHT22;7826;49.784;9.934;2024-01-06T15:41:09;-0.20;1.00
15450;DHT22;7826;49.784;9.934;2024-01-06T15:43:35;-0.10;1.00
15450;DHT22;7826;49.784;9.934;2024-01-06T15:46:01;-0.10;1.00
15450;DHT22;7826;49.784;9.934;2024-01-06T15:48:27;-0.10;1.00
15450;DHT22;7826;49.784;9.934;2024-01-06T15:50:53;-0.30;1.00
15450;DHT22;7826;49.784;9.934;2024-01-06T15:53:19;-0.20;1.00
15450;DHT22;7826;49.784;9.934;2024-01-06T15:55:45;-0.10;1.00
15450;DHT22;7826;49.784;9.934;2024-01-06T15:58:12;-0.10;1.00
15450;DHT22;7826;49.784;9.934;2024-01-06T16:00:39;-0.10;1.00
15450;DHT22;7826;49.784;9.934;2024-01-06T16:03:05;-0.10;1.00
15450;DHT22;7826;49.784;9.934;2024-01-06T16:05:32;-0.10;1.00
15450;DHT22;7826;49.784;9.934;2024-01-06T16:07:58;-0.10;1.00
15450;DHT22;7826;49.784;9.934;2024-01-06T16:10:24;-0.10;1.00
15450;DHT22;7826;49.784;9.934;2024-01-06T16:12:50;-0.20;1.00
15450;DHT22;7826;49.784;9.934;2024-01-06T16:15:19;-0.20;1.00
15450;DHT22;7826;49.784;9.934;2024-01-06T16:17:46;-0.20;1.00
15450;DHT22;7826;49.784;9.934;2024-01-06T16:20:12;-0.20;1.00